createdAt,value
2023-01-02T04:35:29.037Z,15.10
2023-01-02T04:50:33.540Z,15.00
2023-01-02T05:05:38.428Z,15.00
2023-01-02T05:20:42.851Z,14.80
2023-01-02T05:35:47.255Z,14.60
2023-01-02T05:50:51.695Z,15.00
2023-01-02T06:05:56.136Z,15.10
2023-01-02T06:21:01.071Z,15.00
2023-01-02T06:36:08.004Z,15.00
2023-01-02T06:51:14.168Z,15.00
2023-01-02T07:06:20.667Z,15.20
2023-01-02T07:21:25.192Z,15.10
2023-01-02T07:52:32.489Z,14.70
2023-01-02T08:07:42.782Z,14.60
2023-01-02T08:22:49.323Z,14.80
2023-01-02T08:37:53.894Z,14.60
2023-01-02T08:52:58.596Z,14.90
2023-01-02T09:08:04.650Z,14.80
2023-01-02T09:23:09.163Z,14.20
2023-01-02T09:38:13.793Z,14.50
2023-01-02T09:53:18.566Z,14.40
2023-01-02T10:08:32.898Z,14.20
2023-01-02T10:23:43.154Z,14.00
2023-01-02T10:38:47.769Z,14.30
2023-01-02T10:54:03.618Z,14.50
2023-01-02T11:09:20.269Z,14.50
2023-01-02T11:24:27.156Z,14.40
2023-01-02T11:39:34.040Z,14.30
2023-01-02T11:54:45.011Z,14.60
2023-01-02T12:10:00.263Z,14.60
2023-01-02T12:25:39.037Z,14.90
2023-01-02T12:40:53.123Z,14.50
2023-01-02T12:56:08.863Z,14.60
2023-01-02T13:11:23.843Z,14.60
2023-01-02T13:26:30.969Z,14.40
2023-01-02T13:41:59.697Z,14.20
2023-01-02T13:57:33.337Z,14.60
2023-01-02T14:12:45.089Z,15.00
2023-01-02T14:27:55.092Z,15.20
2023-01-02T14:43:20.320Z,14.90
2023-01-02T14:58:32.290Z,14.80
2023-01-02T15:14:05.489Z,14.80
2023-01-02T15:29:03.578Z,14.60
2023-01-02T15:44:29.052Z,14.40
2023-01-02T15:59:38.787Z,14.60
2023-01-02T16:14:50.704Z,14.70
2023-01-02T16:29:56.050Z,14.50
2023-01-02T16:45:00.621Z,14.70
2023-01-02T17:00:06.264Z,14.60
2023-01-02T17:15:14.395Z,14.60
2023-01-02T17:30:19.552Z,14.60
2023-01-02T17:45:24.661Z,14.30
2023-01-02T18:00:29.454Z,14.60
2023-01-02T18:15:34.037Z,14.40
2023-01-02T18:30:38.648Z,14.40
2023-01-02T18:45:43.297Z,14.60
2023-01-02T19:00:47.984Z,14.40
2023-01-02T19:15:56.621Z,13.90
2023-01-02T19:31:01.264Z,13.90
2023-01-02T19:46:05.923Z,13.90
2023-01-02T20:01:11.433Z,13.90
2023-01-02T20:16:16.047Z,13.80
2023-01-02T20:31:20.664Z,13.70
2023-01-02T20:46:25.917Z,13.90
2023-01-02T21:01:30.552Z,14.10
